Time;durP1;ratioP1;P1;durP2;ratioP2;P2;SDS_P1;SDS_P2;PMS_P1;PMS_P2;Temp;Humidity;BMP_temperature;BMP_pressure;BME280_temperature;BME280_humidity;BME280_pressure;Samples;Min_cycle;Max_cycle;Signal;HPM_P1;HPM_P2
2021/06/14 00:01:35;;;;;;;15.63;14.50;;;24.60;77.90;;;;;;3597666;40;20561;-62
2021/06/14 00:04:02;;;;;;;15.10;14.10;;;24.60;77.90;;;;;;3597483;40;20474;-62
2021/06/14 00:06:29;;;;;;;14.87;14.00;;;24.60;77.90;;;;;;3597423;40;20514;-62
2021/06/14 00:08:56;;;;;;;15.43;14.13;;;24.60;77.90;;;;;;3597467;40;20477;-62
2021/06/14 00:11:23;;;;;;;14.53;13.73;;;24.50;77.90;;;;;;3596153;40;20465;-62
2021/06/14 00:13:51;;;;;;;14.67;13.77;;;24.60;78.00;;;;;;3596828;40;20501;-61
2021/06/14 00:16:18;;;;;;;15.27;14.17;;;24.60;77.90;;;;;;3596653;40;20508;-62
2021/06/14 00:18:47;;;;;;;14.70;13.80;;;24.60;77.90;;;;;;3596675;40;20574;-62
2021/06/14 00:21:17;;;;;;;15.43;14.20;;;24.60;77.90;;;;;;3597569;40;20716;-62
2021/06/14 00:23:45;;;;;;;14.93;14.03;;;24.60;77.90;;;;;;3596665;40;20479;-62
2021/06/14 00:26:13;;;;;;;14.20;13.40;;;24.60;78.00;;;;;;3596731;40;20500;-62
2021/06/14 00:28:41;;;;;;;14.20;13.40;;;24.60;78.00;;;;;;3597327;40;20499;-62
2021/06/14 00:31:09;;;;;;;13.50;12.80;;;24.60;78.00;;;;;;3596914;40;21017;-62
2021/06/14 00:33:37;;;;;;;14.93;13.90;;;24.60;78.00;;;;;;3596620;39;20509;-62
2021/06/14 00:36:07;;;;;;;13.63;12.90;;;24.60;78.00;;;;;;3596886;40;20906;-62
2021/06/14 00:38:35;;;;;;;14.20;13.30;;;24.60;78.00;;;;;;3597112;40;20598;-62
2021/06/14 00:41:02;;;;;;;14.80;14.00;;;24.60;78.00;;;;;;3596776;40;21147;-62
2021/06/14 00:43:32;;;;;;;15.47;14.13;;;24.60;78.00;;;;;;3587898;40;20477;-62
2021/06/14 00:46:00;;;;;;;13.83;13.03;;;24.50;77.90;;;;;;3596773;40;20473;-62
2021/06/14 00:48:28;;;;;;;14.37;13.47;;;24.60;78.10;;;;;;3596016;40;20586;-62
2021/06/14 00:50:57;;;;;;;14.30;13.40;;;24.50;78.60;;;;;;3596890;40;20481;-62
2021/06/14 00:53:29;;;;;;;14.27;13.47;;;24.50;77.90;;;;;;3597573;40;20581;-62
2021/06/14 00:55:57;;;;;;;14.33;13.60;;;24.50;77.90;;;;;;3596965;40;20489;-62
2021/06/14 00:58:24;;;;;;;14.70;13.80;;;24.50;77.90;;;;;;3597090;40;20485;-62
2021/06/14 01:00:53;;;;;;;14.90;13.90;;;24.50;78.00;;;;;;3595945;40;20457;-62
2021/06/14 01:03:22;;;;;;;15.03;14.13;;;24.50;78.00;;;;;;3587783;40;20517;-62
2021/06/14 01:05:51;;;;;;;14.60;13.80;;;24.50;77.90;;;;;;3596435;40;20562;-62
2021/06/14 01:08:19;;;;;;;14.90;14.00;;;24.50;78.00;;;;;;3596738;40;20480;-62
2021/06/14 01:10:50;;;;;;;15.00;13.90;;;24.50;77.90;;;;;;3587164;40;20492;-62
2021/06/14 01:13:31;;;;;;;13.93;13.00;;;24.50;77.90;;;;;;3597132;40;20493;-62
2021/06/14 01:16:07;;;;;;;15.40;14.23;;;24.60;78.10;;;;;;3586845;40;20477;-62
2021/06/14 01:18:42;;;;;;;14.33;13.60;;;24.50;78.00;;;;;;3596057;40;20919;-62
2021/06/14 01:21:14;;;;;;;13.90;13.10;;;24.50;78.00;;;;;;3596285;40;20481;-62
2021/06/14 01:24:10;;;;;;;13.87;12.80;;;24.50;78.00;;;;;;3596923;40;20484;-62
2021/06/14 01:26:47;;;;;;;14.40;13.50;;;24.60;78.20;;;;;;3595502;40;20492;-62
2021/06/14 01:29:19;;;;;;;15.17;13.97;;;24.50;78.10;;;;;;3587747;40;20481;-62
2021/06/14 01:31:48;;;;;;;16.67;15.60;;;24.50;78.00;;;;;;3587360;40;20477;-62
2021/06/14 01:34:16;;;;;;;15.47;14.37;;;24.50;78.00;;;;;;3596197;40;20488;-62
2021/06/14 01:36:46;;;;;;;15.87;14.50;;;24.50;78.00;;;;;;3595356;40;20518;-62
2021/06/14 01:39:14;;;;;;;14.63;13.73;;;24.50;78.10;;;;;;3595965;40;20477;-62
2021/06/14 01:41:46;;;;;;;14.47;13.63;;;24.50;78.00;;;;;;3595458;40;20815;-62
2021/06/14 01:44:20;;;;;;;14.20;13.30;;;24.50;78.00;;;;;;3596367;40;20558;-62
2021/06/14 01:46:51;;;;;;;13.40;12.70;;;24.50;78.00;;;;;;3597450;40;20496;-62
2021/06/14 01:49:21;;;;;;;15.43;14.13;;;24.50;78.00;;;;;;3588533;40;20485;-62
2021/06/14 01:51:54;;;;;;;14.67;13.90;;;24.50;77.90;;;;;;3597091;40;20478;-62
2021/06/14 01:54:24;;;;;;;14.67;13.87;;;24.50;77.90;;;;;;3588664;40;20489;-62
2021/06/14 01:57:04;;;;;;;14.97;13.90;;;24.50;77.90;;;;;;3597995;40;20476;-61
2021/06/14 01:59:52;;;;;;;13.80;13.00;;;24.50;77.90;;;;;;3589433;40;20496;-62
2021/06/14 02:02:29;;;;;;;14.57;13.77;;;24.50;77.90;;;;;;3598164;40;20489;-62
2021/06/14 02:05:01;;;;;;;15.07;14.17;;;24.50;77.90;;;;;;3596880;40;20484;-62
2021/06/14 02:07:31;;;;;;;14.70;13.87;;;24.50;78.00;;;;;;3597368;40;20484;-62
2021/06/14 02:10:00;;;;;;;14.73;13.97;;;24.50;78.10;;;;;;3596873;40;20484;-62
2021/06/14 02:12:29;;;;;;;15.57;14.50;;;24.50;78.00;;;;;;3588658;40;20501;-62
2021/06/14 02:14:59;;;;;;;14.93;13.93;;;24.50;78.00;;;;;;3597713;40;20522;-62
2021/06/14 02:17:30;;;;;;;14.47;13.60;;;24.50;78.10;;;;;;3588171;40;20503;-62
2021/06/14 02:19:59;;;;;;;14.50;13.70;;;24.50;78.10;;;;;;3597488;40;20889;-62
2021/06/14 02:22:30;;;;;;;14.27;13.27;;;24.50;78.10;;;;;;3596993;40;21107;-62
2021/06/14 02:24:57;;;;;;;15.20;14.30;;;24.50;78.10;;;;;;3596818;40;20524;-62
2021/06/14 02:27:25;;;;;;;14.20;13.50;;;24.50;78.10;;;;;;3596481;40;20473;-62
2021/06/14 02:29:52;;;;;;;14.97;13.87;;;24.50;78.20;;;;;;3596616;40;20469;-62
2021/06/14 02:32:21;;;;;;;15.20;14.20;;;24.50;78.30;;;;;;3588270;40;20574;-62
2021/06/14 02:34:49;;;;;;;13.60;12.70;;;24.50;78.30;;;;;;3596871;40;20855;-62
2021/06/14 02:37:20;;;;;;;14.80;14.00;;;24.50;78.30;;;;;;3596388;40;20469;-62
2021/06/14 02:39:51;;;;;;;15.07;14.17;;;24.50;78.30;;;;;;3596365;40;20727;-62
2021/06/14 02:42:19;;;;;;;14.43;13.63;;;24.50;78.30;;;;;;4686040;22;20521;-62
2021/06/14 02:44:48;;;;;;;14.87;13.90;;;24.50;78.20;;;;;;3593899;40;20477;-62
2021/06/14 02:47:17;;;;;;;14.00;13.30;;;24.50;78.30;;;;;;3597550;40;20469;-62
2021/06/14 02:49:49;;;;;;;15.53;14.50;;;24.40;78.20;;;;;;3586449;40;20484;-62
2021/06/14 02:52:17;;;;;;;15.03;14.20;;;24.50;78.40;;;;;;3586731;40;20462;-62
2021/06/14 02:54:51;;;;;;;15.53;14.53;;;24.50;78.20;;;;;;3586499;40;20927;-62
2021/06/14 02:57:19;;;;;;;15.40;14.60;;;24.50;78.30;;;;;;3577654;40;20548;-62
2021/06/14 02:59:49;;;;;;;16.53;15.57;;;24.40;78.20;;;;;;3578630;40;20484;-62
2021/06/14 03:02:20;;;;;;;15.30;14.43;;;24.40;78.10;;;;;;3597408;40;20488;-62
2021/06/14 03:04:50;;;;;;;15.23;14.33;;;24.40;78.10;;;;;;3596935;40;20489;-62
2021/06/14 03:07:21;;;;;;;13.90;13.20;;;24.50;78.10;;;;;;3597505;40;20476;-62
2021/06/14 03:09:48;;;;;;;14.87;13.90;;;24.50;78.20;;;;;;3596804;40;20566;-62
2021/06/14 03:12:17;;;;;;;15.00;14.00;;;24.50;78.10;;;;;;3587750;40;20488;-62
2021/06/14 03:14:46;;;;;;;14.43;13.67;;;24.50;78.30;;;;;;3586926;40;20489;-62
2021/06/14 03:17:14;;;;;;;14.73;13.90;;;24.50;78.30;;;;;;3596866;40;20472;-62
2021/06/14 03:19:46;;;;;;;15.37;14.47;;;24.50;78.20;;;;;;3587665;40;20485;-62
2021/06/14 03:22:15;;;;;;;15.40;14.10;;;24.50;78.90;;;;;;3587065;40;20570;-62
2021/06/14 03:24:43;;;;;;;16.07;14.90;;;24.50;78.10;;;;;;3596494;40;20903;-62
2021/06/14 03:27:14;;;;;;;13.73;13.00;;;24.40;78.70;;;;;;3587769;40;20598;-62
2021/06/14 03:29:42;;;;;;;17.00;13.23;;;24.50;78.80;;;;;;3596262;40;20465;-62
2021/06/14 03:32:10;;;;;;;14.67;13.97;;;24.50;78.00;;;;;;3597059;40;20466;-62
2021/06/14 03:34:38;;;;;;;14.70;13.90;;;24.50;78.10;;;;;;3596523;40;20481;-62
2021/06/14 03:37:06;;;;;;;15.07;14.17;;;24.50;78.10;;;;;;3591926;40;20478;-62
2021/06/14 03:39:35;;;;;;;14.17;13.47;;;24.50;78.10;;;;;;3586404;40;20522;-62
2021/06/14 03:42:02;;;;;;;14.13;13.30;;;24.50;78.00;;;;;;3586658;40;20516;-62
2021/06/14 03:44:29;;;;;;;14.63;13.83;;;24.40;77.90;;;;;;3576727;40;21134;-62
2021/06/14 03:46:56;;;;;;;14.33;13.63;;;24.50;77.90;;;;;;3586236;40;20493;-62
2021/06/14 03:49:23;;;;;;;15.73;14.90;;;24.50;78.00;;;;;;3585892;40;20492;-62
2021/06/14 03:51:58;;;;;;;14.70;13.60;;;24.50;77.90;;;;;;3576724;40;20485;-62
2021/06/14 03:54:25;;;;;;;15.37;14.40;;;24.50;78.00;;;;;;3585294;40;20889;-62
2021/06/14 03:56:53;;;;;;;15.30;14.43;;;24.50;78.00;;;;;;3585839;40;20486;-62
2021/06/14 03:59:20;;;;;;;15.13;14.07;;;24.40;77.80;;;;;;3584728;40;20478;-62
2021/06/14 04:01:48;;;;;;;14.93;14.20;;;24.40;77.70;;;;;;3585715;40;20514;-62
2021/06/14 04:04:33;;;;;;;15.40;14.60;;;24.40;77.80;;;;;;3576931;40;20479;-62
2021/06/14 04:07:11;;;;;;;14.63;13.80;;;24.40;77.90;;;;;;3576517;40;21062;-62
2021/06/14 04:09:38;;;;;;;15.30;14.40;;;24.40;77.70;;;;;;3585263;40;20555;-62
2021/06/14 04:12:08;;;;;;;16.07;15.27;;;24.40;77.70;;;;;;3585372;40;20497;-61
2021/06/14 04:14:37;;;;;;;15.50;14.70;;;24.40;77.70;;;;;;3583773;40;20486;-62
2021/06/14 04:17:05;;;;;;;15.63;14.83;;;24.40;77.70;;;;;;3584592;40;20496;-62
2021/06/14 04:19:32;;;;;;;16.73;15.73;;;24.40;77.70;;;;;;3584668;40;20540;-61
2021/06/14 04:22:01;;;;;;;16.23;15.30;;;24.50;77.70;;;;;;3585338;40;20480;-62
2021/06/14 04:24:28;;;;;;;16.10;15.30;;;24.50;77.70;;;;;;3583427;40;20482;-62
2021/06/14 04:26:55;;;;;;;16.40;15.50;;;24.50;77.50;;;;;;3583725;40;20662;-62
2021/06/14 04:29:23;;;;;;;15.07;14.37;;;24.50;77.50;;;;;;3583734;40;20489;-62
2021/06/14 04:31:51;;;;;;;16.37;15.37;;;24.50;77.60;;;;;;3584024;40;20489;-63
2021/06/14 04:34:18;;;;;;;16.80;15.80;;;24.50;77.40;;;;;;3582464;40;20794;-62
2021/06/14 04:36:45;;;;;;;16.97;16.07;;;24.60;77.40;;;;;;3582812;40;20494;-62
2021/06/14 04:39:12;;;;;;;16.00;15.20;;;24.60;77.50;;;;;;3582812;40;20883;-62
2021/06/14 04:41:39;;;;;;;16.57;15.43;;;24.60;77.40;;;;;;3582840;40;20506;-62
2021/06/14 04:44:07;;;;;;;16.53;15.63;;;24.50;77.40;;;;;;3583201;40;20493;-62
2021/06/14 04:46:35;;;;;;;16.30;15.33;;;24.60;77.50;;;;;;3584139;40;20556;-62
2021/06/14 04:49:02;;;;;;;17.27;16.27;;;24.60;77.60;;;;;;3583123;40;20481;-62
2021/06/14 04:51:29;;;;;;;16.00;15.00;;;24.60;77.60;;;;;;3572628;40;20536;-62
2021/06/14 04:53:58;;;;;;;17.30;16.10;;;24.60;77.70;;;;;;3581002;40;20493;-62
2021/06/14 04:56:25;;;;;;;16.00;15.10;;;24.60;77.70;;;;;;3581095;40;21162;-62
2021/06/14 04:58:52;;;;;;;15.63;14.83;;;24.60;77.90;;;;;;3580686;40;20474;-62
2021/06/14 05:01:19;;;;;;;15.93;14.93;;;24.60;78.00;;;;;;3581571;40;20496;-62
2021/06/14 05:03:48;;;;;;;15.63;14.83;;;24.60;78.20;;;;;;3580646;40;20486;-62
2021/06/14 05:06:15;;;;;;;16.20;15.20;;;24.60;78.40;;;;;;3578781;40;20490;-62
2021/06/14 05:08:42;;;;;;;16.00;15.00;;;24.60;78.30;;;;;;3579865;40;20493;-62
2021/06/14 05:11:09;;;;;;;15.63;14.83;;;24.60;78.40;;;;;;3578223;40;20490;-62
2021/06/14 05:13:36;;;;;;;16.00;15.17;;;24.60;78.50;;;;;;3575825;40;20478;-62
2021/06/14 05:16:04;;;;;;;16.50;15.50;;;24.60;78.50;;;;;;3578477;40;20474;-57
2021/06/14 05:18:31;;;;;;;14.43;13.77;;;24.60;78.60;;;;;;3578953;40;20571;-64
2021/06/14 05:20:59;;;;;;;14.77;13.60;;;24.30;71.50;;;;;;3576148;40;20498;-64
2021/06/14 05:23:27;;;;;;;14.07;13.33;;;23.60;71.90;;;;;;3573723;40;20735;-64
2021/06/14 05:25:54;;;;;;;13.63;13.03;;;23.10;72.70;;;;;;3571736;40;20477;-64
2021/06/14 05:28:21;;;;;;;14.33;13.40;;;22.70;73.20;;;;;;3574847;40;20552;-64
2021/06/14 05:30:48;;;;;;;14.20;13.40;;;22.40;74.00;;;;;;3574924;40;20478;-64
2021/06/14 05:33:16;;;;;;;15.17;14.27;;;22.20;75.10;;;;;;3573069;40;20470;-64
2021/06/14 05:35:43;;;;;;;15.70;14.73;;;22.00;75.70;;;;;;3565294;40;20556;-64
2021/06/14 05:38:12;;;;;;;15.50;14.50;;;21.80;76.40;;;;;;3554510;40;20900;-64
2021/06/14 05:40:39;;;;;;;14.60;13.53;;;21.70;77.00;;;;;;3560181;40;20564;-64
2021/06/14 05:43:06;;;;;;;14.53;13.83;;;21.60;76.20;;;;;;3563030;40;20596;-64
2021/06/14 05:45:33;;;;;;;13.90;13.30;;;21.60;76.10;;;;;;3560451;40;20529;-64
2021/06/14 05:48:00;;;;;;;14.00;13.40;;;21.60;76.00;;;;;;3559283;40;20483;-64
2021/06/14 05:50:27;;;;;;;14.70;13.80;;;21.50;76.10;;;;;;3560506;40;20499;-64
2021/06/14 05:52:54;;;;;;;14.60;13.50;;;21.40;76.80;;;;;;3557411;40;20940;-64
2021/06/14 05:55:23;;;;;;;13.33;12.73;;;21.50;76.70;;;;;;3558192;40;20936;-64
2021/06/14 05:57:50;;;;;;;14.47;13.67;;;21.50;76.50;;;;;;3560052;40;20487;-64
2021/06/14 06:00:18;;;;;;;13.10;12.40;;;21.40;76.40;;;;;;3556365;40;20860;-64
2021/06/14 06:02:45;;;;;;;14.40;13.60;;;21.40;76.70;;;;;;3558881;40;20471;-64
2021/06/14 06:05:13;;;;;;;14.10;13.33;;;21.50;77.10;;;;;;3558982;40;20486;-64
2021/06/14 06:07:40;;;;;;;14.83;13.97;;;21.60;76.40;;;;;;3550996;40;20877;-64
2021/06/14 06:10:10;;;;;;;14.60;13.57;;;21.60;76.00;;;;;;3547007;40;20503;-64
2021/06/14 06:12:40;;;;;;;14.43;13.53;;;21.60;75.70;;;;;;3544782;40;20483;-64
2021/06/14 06:15:12;;;;;;;15.00;14.00;;;21.40;76.00;;;;;;3550775;40;20487;-64
2021/06/14 06:17:40;;;;;;;13.43;12.80;;;21.60;76.00;;;;;;3550035;40;20908;-64
2021/06/14 06:20:10;;;;;;;13.57;12.97;;;21.60;75.00;;;;;;3551288;40;20487;-64
2021/06/14 06:22:37;;;;;;;14.83;13.83;;;21.70;75.10;;;;;;3555315;40;20592;-64
2021/06/14 06:25:06;;;;;;;15.30;14.23;;;21.80;74.60;;;;;;3552261;40;20574;-63
2021/06/14 06:27:33;;;;;;;13.83;13.03;;;21.70;73.90;;;;;;3552614;40;20799;-63
2021/06/14 06:30:01;;;;;;;14.37;13.67;;;21.70;74.10;;;;;;3556932;40;20477;-63
2021/06/14 06:32:29;;;;;;;13.73;13.03;;;21.70;73.90;;;;;;3558712;40;20492;-63
2021/06/14 06:34:57;;;;;;;14.47;13.57;;;21.70;73.40;;;;;;3573433;40;20512;-63
2021/06/14 06:37:25;;;;;;;13.13;12.40;;;21.80;74.20;;;;;;3565935;40;20907;-63
2021/06/14 06:39:53;;;;;;;14.87;13.37;;;21.90;73.50;;;;;;3567437;40;20489;-63
2021/06/14 06:42:21;;;;;;;13.70;13.00;;;22.00;73.20;;;;;;3570383;40;21308;-63
2021/06/14 06:44:50;;;;;;;14.13;13.00;;;22.00;73.40;;;;;;3567301;40;20486;-63
2021/06/14 06:47:19;;;;;;;14.47;13.57;;;22.10;73.10;;;;;;3568985;40;20477;-64
2021/06/14 06:49:46;;;;;;;13.43;12.77;;;22.30;73.90;;;;;;3566973;40;20502;-63
2021/06/14 06:52:14;;;;;;;12.90;12.30;;;22.40;72.50;;;;;;3562104;40;20479;-63
2021/06/14 06:54:43;;;;;;;12.40;11.80;;;22.40;72.40;;;;;;3558036;40;20518;-63
2021/06/14 06:57:11;;;;;;;13.63;12.93;;;22.50;72.50;;;;;;3565752;40;20538;-63
2021/06/14 06:59:40;;;;;;;14.00;13.00;;;22.70;72.50;;;;;;3565408;40;21125;-59
2021/06/14 07:02:07;;;;;;;13.50;12.83;;;22.90;72.10;;;;;;3569068;40;20489;-64
2021/06/14 07:04:37;;;;;;;12.57;11.97;;;23.00;71.60;;;;;;3558522;40;20486;-64
2021/06/14 07:07:05;;;;;;;12.87;12.27;;;23.10;69.80;;;;;;3566039;40;20576;-64
2021/06/14 07:09:32;;;;;;;12.93;12.13;;;23.20;70.30;;;;;;3572263;40;20481;-64
2021/06/14 07:12:01;;;;;;;12.70;12.10;;;23.20;70.20;;;;;;3573212;40;20486;-65
2021/06/14 07:14:28;;;;;;;13.37;12.70;;;23.20;70.20;;;;;;3569440;40;20504;-64
2021/06/14 07:16:55;;;;;;;12.50;11.90;;;23.30;70.40;;;;;;3573167;39;20503;-62
2021/06/14 07:19:23;;;;;;;13.33;12.53;;;23.40;70.00;;;;;;3586475;39;21135;-62
2021/06/14 07:21:51;;;;;;;12.37;11.83;;;23.50;70.10;;;;;;3585235;39;20487;-62
2021/06/14 07:24:19;;;;;;;11.90;11.20;;;23.50;70.00;;;;;;3582225;39;20484;-62
2021/06/14 07:26:46;;;;;;;13.10;12.33;;;23.60;70.00;;;;;;3579343;39;20485;-62
2021/06/14 07:29:13;;;;;;;13.30;12.50;;;23.60;69.70;;;;;;3577611;39;20578;-59
2021/06/14 07:31:40;;;;;;;13.33;12.60;;;23.60;69.80;;;;;;3573916;39;20586;-59
2021/06/14 07:34:08;;;;;;;13.67;12.93;;;23.70;70.30;;;;;;3583594;39;20496;-59
2021/06/14 07:36:37;;;;;;;13.90;13.30;;;23.80;70.60;;;;;;3582857;39;20512;-59
2021/06/14 07:39:06;;;;;;;14.17;13.40;;;23.80;71.10;;;;;;3574202;40;20606;-59
2021/06/14 07:41:35;;;;;;;14.30;13.60;;;23.80;71.20;;;;;;3573415;39;20489;-59
2021/06/14 07:44:04;;;;;;;14.27;13.47;;;23.90;71.50;;;;;;3570153;39;20517;-58
2021/06/14 07:46:32;;;;;;;14.80;14.00;;;23.90;71.70;;;;;;3574126;39;20788;-59
2021/06/14 07:48:59;;;;;;;14.23;13.33;;;23.90;71.90;;;;;;3578936;39;20512;-59
2021/06/14 07:51:30;;;;;;;15.77;14.87;;;23.90;72.00;;;;;;3580440;39;20827;-59
2021/06/14 07:53:57;;;;;;;15.13;14.20;;;24.00;72.30;;;;;;3581881;39;20920;-56
2021/06/14 07:56:26;;;;;;;15.13;14.23;;;24.00;72.40;;;;;;3583517;39;20484;-58
2021/06/14 07:58:53;;;;;;;13.87;13.17;;;24.00;72.60;;;;;;3581747;39;20483;-57
2021/06/14 08:01:21;;;;;;;15.50;14.50;;;24.00;72.60;;;;;;3581489;39;20573;-59
2021/06/14 08:03:50;;;;;;;13.37;12.67;;;24.00;72.70;;;;;;3583345;39;20609;-62
2021/06/14 08:06:18;;;;;;;14.63;13.93;;;24.00;73.60;;;;;;3586371;39;20480;-62
2021/06/14 08:08:45;;;;;;;14.20;13.50;;;24.00;73.00;;;;;;3573134;39;20498;-61
2021/06/14 08:11:12;;;;;;;14.80;13.93;;;24.10;73.10;;;;;;3582592;39;20476;-58
2021/06/14 08:13:42;;;;;;;14.60;13.80;;;24.10;73.10;;;;;;3584219;39;20501;-58
2021/06/14 08:16:10;;;;;;;15.50;14.50;;;24.10;73.20;;;;;;3580427;39;20504;-56
2021/06/14 08:18:48;;;;;;;13.97;13.33;;;24.10;73.20;;;;;;3576868;39;20491;-57
2021/06/14 08:21:28;;;;;;;15.03;14.33;;;24.10;73.20;;;;;;3575407;39;20881;-63
2021/06/14 08:26:45;;;;;;;16.20;15.37;;;24.10;73.30;;;;;;3570131;39;20889;-58
2021/06/14 08:29:15;;;;;;;15.23;14.43;;;24.10;73.40;;;;;;3575978;39;20553;-63
2021/06/14 08:31:44;;;;;;;15.70;14.80;;;24.20;73.50;;;;;;3571853;39;20473;-60
2021/06/14 08:34:11;;;;;;;15.50;14.70;;;24.10;73.30;;;;;;3569251;39;20799;-59
2021/06/14 08:36:39;;;;;;;16.20;15.40;;;24.20;73.40;;;;;;3573003;39;20485;-60
2021/06/14 08:39:10;;;;;;;18.00;16.67;;;24.20;73.40;;;;;;3571172;40;20570;-60
2021/06/14 08:41:40;;;;;;;16.63;15.63;;;24.20;73.50;;;;;;3572020;40;20495;-59
2021/06/14 08:44:10;;;;;;;17.90;17.00;;;24.20;73.60;;;;;;3578776;39;20488;-59
2021/06/14 08:46:40;;;;;;;16.97;16.17;;;24.20;73.70;;;;;;3568623;39;20590;-59
2021/06/14 08:49:08;;;;;;;16.10;15.40;;;24.20;73.80;;;;;;3573104;40;20473;-60
2021/06/14 08:51:37;;;;;;;15.73;15.00;;;24.20;73.80;;;;;;3571205;40;20485;-60
2021/06/14 08:54:07;;;;;;;17.83;16.50;;;24.20;73.70;;;;;;3576771;39;20485;-56
2021/06/14 08:56:35;;;;;;;17.40;16.40;;;24.20;73.70;;;;;;3581780;39;21048;-58
2021/06/14 08:59:03;;;;;;;17.83;16.93;;;24.20;73.60;;;;;;3579834;39;20534;-57
2021/06/14 09:01:30;;;;;;;17.17;16.17;;;24.20;73.70;;;;;;3578440;39;20698;-59
2021/06/14 09:04:01;;;;;;;16.20;15.40;;;24.20;73.60;;;;;;3583688;39;20472;-57
2021/06/14 09:06:29;;;;;;;17.90;17.00;;;24.20;73.60;;;;;;3583075;39;20544;-59
2021/06/14 09:09:03;;;;;;;17.30;16.50;;;24.20;73.60;;;;;;3577841;39;20798;-58
2021/06/14 09:11:36;;;;;;;16.53;15.73;;;24.20;73.50;;;;;;3562560;39;20629;-63
2021/06/14 09:14:15;;;;;;;16.67;15.87;;;24.20;73.50;;;;;;3553182;40;20476;-63
2021/06/14 09:16:42;;;;;;;16.60;15.77;;;24.20;73.40;;;;;;3560307;39;20475;-58
2021/06/14 09:19:25;;;;;;;24.90;15.70;;;24.20;73.40;;;;;;3582353;39;20561;-62
2021/06/14 09:21:56;;;;;;;17.37;16.47;;;24.20;73.50;;;;;;3582768;39;20538;-62
2021/06/14 09:24:25;;;;;;;17.77;16.80;;;24.30;73.60;;;;;;3582208;39;20763;-64
2021/06/14 09:26:52;;;;;;;15.23;14.33;;;24.30;73.60;;;;;;3586225;39;20500;-64
2021/06/14 09:29:27;;;;;;;15.50;14.20;;;24.30;73.80;;;;;;3571083;40;20504;-63
2021/06/14 09:31:58;;;;;;;14.60;13.70;;;24.20;73.70;;;;;;3570744;39;20496;-61
2021/06/14 09:34:36;;;;;;;15.23;13.97;;;24.30;73.90;;;;;;3575273;39;20503;-61
2021/06/14 09:37:06;;;;;;;14.20;13.50;;;24.30;73.90;;;;;;3567736;39;20504;-61
2021/06/14 09:39:38;;;;;;;14.50;13.70;;;24.30;73.90;;;;;;3566435;39;20545;-60
2021/06/14 09:42:19;;;;;;;15.20;14.40;;;24.30;74.00;;;;;;3572921;39;20489;-61
2021/06/14 09:44:49;;;;;;;15.43;14.30;;;24.30;74.10;;;;;;3581675;39;20510;-61
2021/06/14 09:47:18;;;;;;;14.77;14.07;;;24.30;74.00;;;;;;3580215;39;20577;-60
2021/06/14 09:50:00;;;;;;;15.27;14.60;;;24.30;73.90;;;;;;3582123;39;20479;-61
2021/06/14 09:52:27;;;;;;;14.97;14.17;;;24.30;73.90;;;;;;3576645;39;20500;-61
2021/06/14 09:55:07;;;;;;;14.90;14.30;;;24.30;73.90;;;;;;3572846;40;21320;-61
2021/06/14 09:57:36;;;;;;;14.27;13.37;;;24.30;73.90;;;;;;3578735;39;21035;-63
2021/06/14 10:00:08;;;;;;;13.93;13.03;;;24.30;73.90;;;;;;3576436;39;20795;-65
2021/06/14 10:02:38;;;;;;;14.57;13.77;;;24.30;73.90;;;;;;3578537;39;20504;-65
2021/06/14 10:05:17;;;;;;;13.80;12.80;;;24.30;73.70;;;;;;3586259;39;20484;-62
2021/06/14 10:07:47;;;;;;;14.00;13.30;;;24.30;73.70;;;;;;3589150;39;20893;-68
2021/06/14 10:10:20;;;;;;;14.50;13.80;;;24.30;73.60;;;;;;3584931;39;20497;-66
2021/06/14 10:12:50;;;;;;;15.70;14.80;;;24.30;73.60;;;;;;3576114;39;20499;-66
2021/06/14 10:15:27;;;;;;;14.50;13.80;;;24.30;73.60;;;;;;3575710;39;20488;-65
2021/06/14 10:17:54;;;;;;;15.43;14.40;;;24.30;73.60;;;;;;3577993;39;20484;-67
2021/06/14 10:20:26;;;;;;;15.60;14.63;;;24.30;73.70;;;;;;3574212;39;20863;-67
2021/06/14 10:22:57;;;;;;;16.20;15.20;;;24.30;73.70;;;;;;3581151;39;20499;-66
2021/06/14 10:25:26;;;;;;;15.83;14.90;;;24.30;73.80;;;;;;3577896;40;20510;-67
2021/06/14 10:27:54;;;;;;;15.23;14.20;;;24.30;73.70;;;;;;3576476;39;20496;-66
2021/06/14 10:30:24;;;;;;;14.57;13.67;;;24.30;73.80;;;;;;3576081;39;20562;-66
2021/06/14 10:32:52;;;;;;;14.73;13.83;;;24.30;73.80;;;;;;3580255;39;20689;-68
2021/06/14 10:35:21;;;;;;;14.30;13.50;;;24.30;73.70;;;;;;3584015;39;20593;-68
2021/06/14 10:37:53;;;;;;;13.10;12.30;;;24.30;73.70;;;;;;3574420;39;20775;-68
2021/06/14 10:40:25;;;;;;;14.07;13.37;;;24.30;72.20;;;;;;3573350;40;20496;-68
2021/06/14 10:42:54;;;;;;;14.37;13.40;;;24.30;72.30;;;;;;3573905;40;20465;-68
2021/06/14 10:45:26;;;;;;;14.20;13.50;;;24.30;72.10;;;;;;3571953;39;20485;-68
2021/06/14 10:47:56;;;;;;;13.73;12.93;;;24.40;72.20;;;;;;3580149;39;20488;-68
2021/06/14 10:50:26;;;;;;;13.50;12.70;;;24.30;69.60;;;;;;3578684;39;20958;-68
2021/06/14 10:52:55;;;;;;;14.37;13.10;;;24.30;70.20;;;;;;3570021;40;20492;-68
2021/06/14 10:55:27;;;;;;;15.73;14.40;;;24.30;70.50;;;;;;3570608;39;20500;-68
2021/06/14 10:57:55;;;;;;;13.03;12.37;;;24.30;70.80;;;;;;3565475;40;20774;-68
2021/06/14 11:00:26;;;;;;;14.07;13.20;;;24.30;69.90;;;;;;3572376;39;20558;-69
2021/06/14 11:02:56;;;;;;;12.50;11.90;;;24.40;70.10;;;;;;3571470;40;20652;-69
2021/06/14 11:05:37;;;;;;;12.60;11.93;;;24.40;70.40;;;;;;3571274;40;20485;-69
2021/06/14 11:08:17;;;;;;;12.60;12.00;;;24.40;70.00;;;;;;3570351;40;20532;-69
2021/06/14 11:10:50;;;;;;;13.20;12.50;;;24.40;70.40;;;;;;3573726;39;20548;-69
2021/06/14 11:13:19;;;;;;;12.77;12.10;;;24.30;69.40;;;;;;3571544;40;20477;-69
2021/06/14 11:15:55;;;;;;;13.77;13.07;;;24.40;69.70;;;;;;3558237;39;20524;-69
2021/06/14 11:18:24;;;;;;;12.63;12.03;;;24.40;69.80;;;;;;3572724;39;20517;-68
2021/06/14 11:20:54;;;;;;;13.90;13.10;;;24.40;69.50;;;;;;3573845;39;21330;-68
2021/06/14 11:23:27;;;;;;;12.07;11.57;;;24.40;69.00;;;;;;3574113;39;20476;-69
2021/06/14 11:25:57;;;;;;;12.53;11.93;;;24.30;67.80;;;;;;3572433;40;20492;-69
2021/06/14 11:28:33;;;;;;;13.00;12.40;;;24.20;67.90;;;;;;3585081;39;21168;-68
2021/06/14 11:31:14;;;;;;;12.70;12.00;;;24.20;68.20;;;;;;3577381;39;20497;-67
2021/06/14 11:33:41;;;;;;;13.67;12.70;;;24.30;68.40;;;;;;3574595;40;20862;-67
2021/06/14 11:36:15;;;;;;;13.50;12.90;;;24.40;68.80;;;;;;3577911;40;20507;-68
2021/06/14 11:38:44;;;;;;;13.27;12.67;;;24.40;69.10;;;;;;3576156;39;20493;-66
2021/06/14 11:41:12;;;;;;;13.63;13.03;;;24.40;69.40;;;;;;3575770;39;20551;-66
2021/06/14 11:43:40;;;;;;;13.87;13.10;;;24.40;69.60;;;;;;3573693;39;20772;-66
2021/06/14 11:46:24;;;;;;;13.70;13.00;;;24.40;69.80;;;;;;3582013;39;20758;-66
2021/06/14 11:48:57;;;;;;;14.80;14.00;;;24.40;70.10;;;;;;3577702;39;20503;-66
2021/06/14 11:51:33;;;;;;;14.40;13.77;;;24.40;70.20;;;;;;3573859;39;20492;-66
2021/06/14 11:54:03;;;;;;;14.30;13.50;;;24.40;70.40;;;;;;3573740;39;20483;-68
2021/06/14 11:56:33;;;;;;;14.83;14.03;;;24.40;70.60;;;;;;3574528;40;21137;-68
2021/06/14 11:59:00;;;;;;;13.70;13.10;;;24.40;70.70;;;;;;3572465;40;20489;-66
2021/06/14 12:01:30;;;;;;;14.33;13.60;;;24.40;70.90;;;;;;3584914;39;20986;-69
2021/06/14 12:03:59;;;;;;;14.70;13.90;;;24.40;71.00;;;;;;3586535;39;20472;-68
2021/06/14 12:06:28;;;;;;;14.27;13.47;;;24.40;71.20;;;;;;3586077;39;21030;-67
2021/06/14 12:09:08;;;;;;;14.43;13.63;;;24.40;71.30;;;;;;3578160;39;20484;-66
2021/06/14 12:11:35;;;;;;;14.43;13.27;;;24.40;71.40;;;;;;3565236;40;20490;-66
2021/06/14 12:14:11;;;;;;;15.47;14.23;;;24.40;71.50;;;;;;3566234;39;20489;-66
2021/06/14 12:16:39;;;;;;;15.37;14.57;;;24.40;71.70;;;;;;3564129;40;20874;-66
2021/06/14 12:19:08;;;;;;;15.47;14.50;;;24.40;71.70;;;;;;3566068;40;20490;-67
2021/06/14 12:21:35;;;;;;;14.40;13.53;;;24.40;71.80;;;;;;3587194;39;20492;-67
2021/06/14 12:24:14;;;;;;;14.53;13.83;;;24.40;71.90;;;;;;3580372;39;20509;-67
2021/06/14 12:26:44;;;;;;;15.60;14.50;;;24.40;72.00;;;;;;3573295;40;20481;-65
2021/06/14 12:29:26;;;;;;;14.23;13.40;;;24.40;72.10;;;;;;3572225;39;20497;-66
2021/06/14 12:32:06;;;;;;;14.83;14.07;;;24.40;72.20;;;;;;3572783;39;20584;-66
2021/06/14 12:34:37;;;;;;;15.40;14.37;;;24.40;72.20;;;;;;3575218;40;20483;-67
2021/06/14 12:37:08;;;;;;;15.00;14.10;;;24.40;72.20;;;;;;3577451;40;20668;-67
2021/06/14 12:39:36;;;;;;;14.93;14.13;;;24.40;72.30;;;;;;3586154;39;20515;-67
2021/06/14 12:42:16;;;;;;;14.67;13.87;;;24.40;72.40;;;;;;3579973;39;20574;-67
2021/06/14 12:45:03;;;;;;;15.77;14.87;;;24.40;72.50;;;;;;3566093;39;20469;-67